Αρχική σελίδα
METAR-TAF:

METAR-TAF

Αεροδρόμια :

Ταράουα, Κιριμπάτι

γεωγραφικό πλάτος: 01-21N, γεωγραφικό μήκος: 172-55E, υψόμετρο: 2 μ

Παρών καιρός

Η αναφορά έγινε 1 ώρα και 4 λεπτά πριν, στις 03:00 UTC
Άνεμος 10 kt από Ν
Θερμοκρασία 31°C
Υγρασία 66%
Πίεση 1009 hPa
Ορατότητα 10 χλμ και άνω
Λίγα νέφη σε ύψος 1700 πόδια, Σωρείτες καθέτου αναπτύξεως.
Διάσπαρτα νέφη σε ύψος 30000 πόδια

METAR: NGTA 180300Z 19010KT 9999 FEW017TCU SCT300 31/24 Q1009

Χρόνος: 18:04 (04:04 UTC)

Πρόγνωση Καιρού

Η αναφορά έγινε 4 ώρες και 42 λεπτά πριν, στις 23:22 UTC
Η πρόγνωση ισχύει από τις 18 στις 00 UTC έως τις 18 στις 24 UTC
Άνεμος 8 kt από Ν
Ορατότητα 10 χλμ και άνω
Λίγα νέφη σε ύψος 2000 πόδια
Διάσπαρτα νέφη σε ύψος 10000 πόδια

TAF: NGTA 172322Z 1800/1824 17008KT 9999 FEW020 SCT100

Μετεωρολογικές αναφορές και προγνώσεις για περισσότερα από 4000 αεροδρόμια (δελτία METAR και TAF).

Οι διαθέσιμοι σταθμοί απεικονίζονται στο χάρτη με κίτρινες και κόκκινες κουκκίδες.

Μετακινήστε το ποντίκι πάνω από τις κουκκίδες για να δείτε το όνομα του σταθμού.

Στη συνέχεια, κάντε κλικ για να δείτε τις μετεωρολογικές αναφορές και τις προγνώσεις καιρού.

Για να αλλάξετε το χάρτη: κάντε κλικ στα πράσινα κουμπιά με τον μαύρο σταυρό για να ζουμάρετε, στο πράσινο κουμπί με την παύλα για να αφαιρέσετε το ζουμ ή στα πράσινα βέλη για να αντιπαραβάλλετε χάρτες.


METAR-TAF: